createdAt,value
2019-02-21T00:02:44.374Z,100669.67
2019-02-21T00:05:49.512Z,100667.97
2019-02-21T00:08:54.747Z,100672.40
2019-02-21T00:11:59.929Z,100672.05
2019-02-21T00:15:05.399Z,100672.05
2019-02-21T00:18:11.608Z,100675.50
2019-02-21T00:21:16.774Z,100673.91
2019-02-21T00:24:21.937Z,100671.63
2019-02-21T00:27:27.090Z,100672.02
2019-02-21T00:30:35.307Z,100677.38
2019-02-21T00:33:39.055Z,100676.28
2019-02-21T00:36:44.214Z,100684.37
2019-02-21T00:39:49.327Z,100684.70
2019-02-21T00:42:54.481Z,100692.76
2019-02-21T00:45:59.653Z,100685.45
2019-02-21T00:49:04.791Z,100687.19
2019-02-21T00:52:09.931Z,100696.40
2019-02-21T00:55:15.051Z,100694.02
2019-02-21T00:58:20.199Z,100701.37
2019-02-21T01:01:25.533Z,100700.77
2019-02-21T01:04:30.697Z,100702.66
2019-02-21T01:07:36.932Z,100696.78
2019-02-21T01:10:42.113Z,100692.61
2019-02-21T01:13:47.423Z,100695.12
2019-02-21T01:16:52.481Z,100697.58
2019-02-21T01:19:57.650Z,100706.14
2019-02-21T01:23:02.844Z,100700.90
2019-02-21T01:26:08.083Z,100700.35
2019-02-21T01:29:13.222Z,100701.81
2019-02-21T01:32:18.352Z,100701.68
2019-02-21T01:35:23.470Z,100711.02
2019-02-21T01:38:28.661Z,100708.41
2019-02-21T01:41:33.898Z,100709.02
2019-02-21T01:44:39.116Z,100711.28
2019-02-21T01:47:44.287Z,100711.22
2019-02-21T01:50:49.414Z,100710.00
2019-02-21T01:53:54.549Z,100715.42
2019-02-21T01:56:59.802Z,100707.63
2019-02-21T02:00:05.831Z,100711.97
2019-02-21T02:03:11.092Z,100702.72
2019-02-21T02:06:16.319Z,100708.61
2019-02-21T02:09:21.935Z,100710.41
2019-02-21T02:12:27.100Z,100712.44
2019-02-21T02:15:33.827Z,100714.64
2019-02-21T02:18:39.332Z,100712.98
2019-02-21T02:21:44.561Z,100713.60
2019-02-21T02:24:49.730Z,100714.58
2019-02-21T02:27:54.914Z,100713.85
2019-02-21T02:31:00.103Z,100719.63
2019-02-21T02:34:06.474Z,100715.51
2019-02-21T02:37:11.625Z,100716.00
2019-02-21T02:40:16.941Z,100720.82
2019-02-21T02:43:22.219Z,100716.51
2019-02-21T02:46:27.468Z,100725.78
2019-02-21T02:49:32.640Z,100730.00
2019-02-21T02:52:37.923Z,100727.94
2019-02-21T02:55:43.081Z,100736.48
2019-02-21T02:58:48.312Z,100720.11
2019-02-21T03:01:54.575Z,100724.56
2019-02-21T03:04:59.717Z,100730.34
2019-02-21T03:08:04.913Z,100737.91
2019-02-21T03:11:10.438Z,100739.38
2019-02-21T03:14:15.669Z,100741.67
2019-02-21T03:17:20.885Z,100752.37
2019-02-21T03:20:26.069Z,100736.22
2019-02-21T03:23:31.315Z,100736.11
2019-02-21T03:26:36.577Z,100732.73
2019-02-21T03:29:41.751Z,100738.28
2019-02-21T03:32:46.896Z,100738.63
2019-02-21T03:35:52.052Z,100741.28
2019-02-21T03:38:57.273Z,100739.86
2019-02-21T03:42:02.452Z,100733.48
2019-02-21T03:45:08.876Z,100740.34
2019-02-21T03:48:14.100Z,100743.34
2019-02-21T03:51:19.320Z,100738.86
2019-02-21T03:54:24.504Z,100743.92
2019-02-21T03:57:31.158Z,100752.92
2019-02-21T04:00:37.310Z,100755.48
2019-02-21T04:03:42.562Z,100757.77
2019-02-21T04:06:47.768Z,100757.17
2019-02-21T04:09:52.949Z,100754.53
2019-02-21T04:12:58.084Z,100750.19
2019-02-21T04:16:03.326Z,100752.97
2019-02-21T04:19:08.511Z,100747.98
2019-02-21T04:22:13.698Z,100740.39
2019-02-21T04:25:18.996Z,100742.19
2019-02-21T04:28:24.178Z,100741.69
2019-02-21T04:31:29.325Z,100743.25
2019-02-21T04:34:34.448Z,100737.93
2019-02-21T04:37:39.594Z,100741.34
2019-02-21T04:40:44.814Z,100740.38
2019-02-21T04:43:49.954Z,100739.42
2019-02-21T04:46:55.258Z,100727.60
2019-02-21T04:50:00.630Z,100733.48
2019-02-21T04:53:06.091Z,100727.58
2019-02-21T04:56:11.277Z,100727.43
2019-02-21T04:59:16.392Z,100725.88
2019-02-21T05:02:28.864Z,100721.37
2019-02-21T05:05:28.516Z,100730.46
2019-02-21T05:08:33.696Z,100729.17
2019-02-21T05:11:38.796Z,100742.37
2019-02-21T05:14:44.023Z,100733.01
2019-02-21T05:17:49.186Z,100736.17
2019-02-21T05:20:54.418Z,100734.98
2019-02-21T05:23:59.555Z,100735.91
2019-02-21T05:27:09.495Z,100733.14
2019-02-21T05:30:18.589Z,100743.38
2019-02-21T05:33:41.431Z,100745.22
2019-02-21T05:37:02.727Z,100738.13
2019-02-21T05:40:41.975Z,100739.86
2019-02-21T05:43:58.643Z,100739.45
2019-02-21T05:47:28.892Z,100736.17
2019-02-21T05:50:56.070Z,100737.06
2019-02-21T05:54:09.127Z,100740.44
2019-02-21T05:57:23.818Z,100741.22
2019-02-21T06:00:54.024Z,100732.13
2019-02-21T06:04:04.738Z,100730.73
2019-02-21T06:07:34.721Z,100735.02
2019-02-21T06:10:51.568Z,100728.55
2019-02-21T06:14:14.380Z,100728.46
2019-02-21T06:17:41.301Z,100734.05
2019-02-21T06:21:08.459Z,100739.22
2019-02-21T06:24:35.336Z,100741.77
2019-02-21T06:27:54.841Z,100747.55
2019-02-21T06:31:03.119Z,100752.25
2019-02-21T06:34:08.257Z,100772.95
2019-02-21T06:37:13.416Z,100771.77
2019-02-21T06:40:18.587Z,100766.45
2019-02-21T06:43:23.744Z,100771.37
2019-02-21T06:46:28.968Z,100770.16
2019-02-21T06:49:34.086Z,100774.70
2019-02-21T06:52:40.690Z,100777.45
2019-02-21T06:55:45.979Z,100773.59
2019-02-21T06:58:51.116Z,100782.20
2019-02-21T07:01:56.256Z,100780.82
2019-02-21T07:05:01.377Z,100785.28
2019-02-21T07:08:08.838Z,100784.57
2019-02-21T07:11:14.162Z,100790.78
2019-02-21T07:14:26.538Z,100788.21
2019-02-21T07:17:32.648Z,100797.77
2019-02-21T07:20:39.736Z,100791.92
2019-02-21T07:23:44.711Z,100796.83
2019-02-21T07:26:49.890Z,100791.50
2019-02-21T07:29:55.349Z,100796.37
2019-02-21T07:33:00.509Z,100802.34
2019-02-21T07:36:05.782Z,100801.94
2019-02-21T07:39:17.172Z,100805.47
2019-02-21T07:42:17.747Z,100807.06
2019-02-21T07:45:22.899Z,100800.55
2019-02-21T07:48:27.989Z,100804.36
2019-02-21T07:51:35.841Z,100798.04
2019-02-21T07:54:39.984Z,100809.89
2019-02-21T07:57:45.213Z,100798.48
2019-02-21T08:00:50.394Z,100811.45
2019-02-21T08:03:55.546Z,100815.98
2019-02-21T08:07:00.689Z,100814.28
2019-02-21T08:10:06.067Z,100807.02
2019-02-21T08:13:11.250Z,100810.22
2019-02-21T08:16:17.306Z,100815.55
2019-02-21T08:19:22.390Z,100812.39
2019-02-21T08:22:27.557Z,100816.16
2019-02-21T08:25:32.666Z,100816.55
2019-02-21T08:28:37.879Z,100814.32
2019-02-21T08:31:43.104Z,100808.50
2019-02-21T08:34:50.570Z,100814.14
2019-02-21T08:37:55.709Z,100805.62
2019-02-21T08:41:00.892Z,100811.92
2019-02-21T08:44:06.053Z,100807.70
2019-02-21T08:47:14.286Z,100806.37
2019-02-21T08:50:22.101Z,100802.80
2019-02-21T08:53:28.127Z,100795.68
2019-02-21T08:56:33.187Z,100804.56
2019-02-21T08:59:38.335Z,100806.22
2019-02-21T09:02:43.458Z,100814.51
2019-02-21T09:05:48.564Z,100812.36
2019-02-21T09:08:53.844Z,100814.22
2019-02-21T09:11:58.998Z,100809.87
2019-02-21T09:15:09.562Z,100817.26
2019-02-21T09:18:16.344Z,100827.15
2019-02-21T09:21:21.455Z,100829.76
2019-02-21T09:24:38.039Z,100829.64
2019-02-21T09:27:34.489Z,100825.97
2019-02-21T09:30:39.631Z,100826.34
2019-02-21T09:33:45.857Z,100821.58
2019-02-21T09:36:50.963Z,100828.28
2019-02-21T09:39:56.097Z,100826.25
2019-02-21T09:43:01.374Z,100824.31
2019-02-21T09:46:06.725Z,100818.72
2019-02-21T09:49:11.918Z,100820.22
2019-02-21T09:52:17.099Z,100819.23
2019-02-21T09:55:22.350Z,100827.75
2019-02-21T09:58:27.472Z,100819.73
2019-02-21T10:01:32.679Z,100823.42
2019-02-21T10:04:38.095Z,100819.41
2019-02-21T10:07:43.314Z,100833.97
2019-02-21T10:10:48.403Z,100818.75
2019-02-21T10:13:53.544Z,100816.53
2019-02-21T10:16:58.703Z,100818.08
2019-02-21T10:20:04.294Z,100810.92
2019-02-21T10:23:09.722Z,100810.88
2019-02-21T10:26:14.849Z,100814.31
2019-02-21T10:29:20.471Z,100822.97
2019-02-21T10:32:25.640Z,100815.73
2019-02-21T10:35:30.857Z,100829.58
2019-02-21T10:38:36.059Z,100829.63
2019-02-21T10:41:41.223Z,100838.07
2019-02-21T10:44:46.396Z,100836.27
2019-02-21T10:47:51.538Z,100827.27
2019-02-21T10:50:56.818Z,100824.80
2019-02-21T10:54:02.110Z,100825.30
2019-02-21T10:57:07.185Z,100828.98
2019-02-21T11:00:21.357Z,100824.91
2019-02-21T11:03:26.613Z,100822.52
2019-02-21T11:06:31.852Z,100813.45
2019-02-21T11:09:37.034Z,100822.20
2019-02-21T11:12:42.247Z,100817.34
2019-02-21T11:15:47.370Z,100817.91
2019-02-21T11:18:52.492Z,100816.66
2019-02-21T11:21:57.683Z,100818.02
2019-02-21T11:25:02.856Z,100816.70
2019-02-21T11:28:07.978Z,100811.36
2019-02-21T11:31:13.065Z,100811.78
2019-02-21T11:34:18.230Z,100806.77
2019-02-21T11:37:23.417Z,100809.52
2019-02-21T11:40:28.567Z,100811.04
2019-02-21T11:43:34.723Z,100809.30
2019-02-21T11:46:40.008Z,100810.02
2019-02-21T11:49:45.236Z,100801.84
2019-02-21T11:52:50.388Z,100799.96
2019-02-21T11:55:55.532Z,100797.31
2019-02-21T11:59:00.725Z,100800.70
2019-02-21T12:02:05.904Z,100793.36
2019-02-21T12:05:17.496Z,100787.52
2019-02-21T12:08:18.157Z,100782.19
2019-02-21T12:11:23.252Z,100784.41
2019-02-21T12:14:28.442Z,100782.03
2019-02-21T12:17:33.553Z,100767.39
2019-02-21T12:20:38.712Z,100765.33
2019-02-21T12:23:43.922Z,100770.09
2019-02-21T12:26:49.157Z,100762.34
2019-02-21T12:29:54.258Z,100755.17
2019-02-21T12:32:59.431Z,100743.81
2019-02-21T12:36:04.593Z,100744.33
2019-02-21T12:39:09.751Z,100735.15
2019-02-21T12:42:16.431Z,100735.08
2019-02-21T12:45:21.703Z,100725.34
2019-02-21T12:48:26.899Z,100727.86
2019-02-21T12:51:32.050Z,100729.26
2019-02-21T12:54:37.163Z,100725.48
2019-02-21T12:57:42.340Z,100713.19
2019-02-21T13:00:47.596Z,100712.16
2019-02-21T13:03:52.750Z,100713.01
2019-02-21T13:06:58.027Z,100712.47
2019-02-21T13:10:03.220Z,100719.86
2019-02-21T13:13:09.564Z,100709.05
2019-02-21T13:16:14.724Z,100716.34
2019-02-21T13:19:19.840Z,100714.86
2019-02-21T13:22:24.958Z,100720.18
2019-02-21T13:25:30.136Z,100718.06
2019-02-21T13:28:35.369Z,100721.97
2019-02-21T13:31:40.502Z,100724.21
2019-02-21T13:34:45.682Z,100732.79
2019-02-21T13:37:50.855Z,100726.28
2019-02-21T13:40:56.002Z,100727.06
2019-02-21T13:44:01.185Z,100716.31
2019-02-21T13:47:06.520Z,100709.95
2019-02-21T13:50:13.866Z,100719.36
2019-02-21T13:53:19.016Z,100722.58
2019-02-21T13:56:24.202Z,100718.27
2019-02-21T13:59:29.455Z,100715.83
2019-02-21T14:02:35.614Z,100717.28
2019-02-21T14:05:40.808Z,100719.53
2019-02-21T14:08:45.989Z,100719.49
2019-02-21T14:11:51.177Z,100713.72
2019-02-21T14:14:57.528Z,100705.37
2019-02-21T14:18:02.808Z,100712.45
2019-02-21T14:21:08.022Z,100713.92
2019-02-21T14:24:13.260Z,100713.45
2019-02-21T14:27:18.667Z,100707.87
2019-02-21T14:30:23.812Z,100713.48
2019-02-21T14:33:28.988Z,100724.82
2019-02-21T14:36:34.130Z,100721.97
2019-02-21T14:39:39.332Z,100713.62
2019-02-21T14:42:44.472Z,100707.48
2019-02-21T14:45:49.696Z,100701.53
2019-02-21T14:48:54.875Z,100702.05
2019-02-21T14:52:02.014Z,100702.88
2019-02-21T14:55:08.597Z,100697.86
2019-02-21T14:58:14.751Z,100703.50
2019-02-21T15:01:19.904Z,100707.69
2019-02-21T15:04:25.030Z,100717.27
2019-02-21T15:07:30.201Z,100715.59
2019-02-21T15:10:35.342Z,100708.15
2019-02-21T15:13:40.533Z,100712.27
2019-02-21T15:16:49.305Z,100707.17
2019-02-21T15:19:56.123Z,100708.41
2019-02-21T15:23:01.331Z,100699.34
2019-02-21T15:26:06.645Z,100697.80
2019-02-21T15:29:11.748Z,100705.14
2019-02-21T15:32:17.020Z,100703.30
2019-02-21T15:35:22.192Z,100707.52
2019-02-21T15:38:27.359Z,100706.80
2019-02-21T15:41:32.668Z,100695.90
2019-02-21T15:44:37.809Z,100702.89
2019-02-21T15:47:42.956Z,100703.91
2019-02-21T15:50:48.110Z,100702.77
2019-02-21T15:53:53.265Z,100711.30
2019-02-21T15:56:58.482Z,100711.25
2019-02-21T16:00:03.664Z,100716.78
2019-02-21T16:03:10.167Z,100708.94
2019-02-21T16:06:15.296Z,100710.97
2019-02-21T16:09:20.533Z,100715.95
2019-02-21T16:12:26.095Z,100709.44
2019-02-21T16:15:31.375Z,100710.25
2019-02-21T16:18:36.660Z,100710.52
2019-02-21T16:21:41.910Z,100704.11
2019-02-21T16:24:48.073Z,100708.34
2019-02-21T16:27:55.226Z,100715.34
2019-02-21T16:31:00.241Z,100719.30
2019-02-21T16:34:05.385Z,100723.34
2019-02-21T16:37:10.571Z,100732.20
2019-02-21T16:40:15.733Z,100736.45
2019-02-21T16:43:20.850Z,100738.48
2019-02-21T16:46:26.016Z,100737.48
2019-02-21T16:49:31.161Z,100739.45
2019-02-21T16:52:36.898Z,100744.02
2019-02-21T16:55:42.144Z,100741.97
2019-02-21T16:58:47.374Z,100734.44
2019-02-21T17:01:52.635Z,100743.13
2019-02-21T17:04:57.866Z,100743.30
2019-02-21T17:08:03.086Z,100758.95
2019-02-21T17:11:08.296Z,100755.11
2019-02-21T17:14:13.476Z,100752.61
2019-02-21T17:17:19.946Z,100757.84
2019-02-21T17:20:25.206Z,100764.06
2019-02-21T17:23:30.347Z,100767.66
2019-02-21T17:26:35.608Z,100768.59
2019-02-21T17:29:40.813Z,100781.98
2019-02-21T17:32:46.344Z,100783.39
2019-02-21T17:35:51.521Z,100782.46
2019-02-21T17:38:56.664Z,100784.73
2019-02-21T17:42:02.578Z,100786.37
2019-02-21T17:45:08.744Z,100794.30
2019-02-21T17:48:13.975Z,100794.36
2019-02-21T17:51:19.127Z,100792.03
2019-02-21T17:54:25.937Z,100795.42
2019-02-21T17:57:31.376Z,100793.83
2019-02-21T18:00:37.538Z,100801.97
2019-02-21T18:03:42.869Z,100784.93
2019-02-21T18:06:48.107Z,100784.00
2019-02-21T18:09:53.291Z,100792.86
2019-02-21T18:12:58.460Z,100802.89
2019-02-21T18:16:03.623Z,100794.56
2019-02-21T18:19:08.804Z,100791.83
2019-02-21T18:22:14.026Z,100801.28
2019-02-21T18:25:23.087Z,100797.92
2019-02-21T18:28:28.339Z,100799.27
2019-02-21T18:31:32.728Z,100792.58
2019-02-21T18:34:38.028Z,100796.27
2019-02-21T18:37:47.323Z,100800.22
2019-02-21T18:40:50.149Z,100807.16
2019-02-21T18:43:55.757Z,100811.59
2019-02-21T18:47:01.019Z,100813.12
2019-02-21T18:50:06.700Z,100813.19
2019-02-21T18:53:11.849Z,100818.23
2019-02-21T18:56:17.117Z,100820.76
2019-02-21T18:59:31.340Z,100813.39
2019-02-21T19:02:29.126Z,100811.00
2019-02-21T19:05:36.239Z,100811.69
2019-02-21T19:08:41.215Z,100811.52
2019-02-21T19:11:46.386Z,100818.91
2019-02-21T19:14:51.718Z,100810.70
2019-02-21T19:17:56.866Z,100809.68
2019-02-21T19:21:02.100Z,100812.03
2019-02-21T19:24:07.259Z,100809.66
2019-02-21T19:27:12.445Z,100800.60
2019-02-21T19:30:20.897Z,100806.09
2019-02-21T19:33:26.143Z,100808.34
2019-02-21T19:36:31.296Z,100809.31
2019-02-21T19:39:36.497Z,100808.16
2019-02-21T19:42:41.732Z,100814.34
2019-02-21T19:45:47.014Z,100812.50
2019-02-21T19:48:52.213Z,100815.34
2019-02-21T19:51:57.536Z,100820.37
2019-02-21T19:55:02.805Z,100818.50
2019-02-21T19:58:08.035Z,100822.32
2019-02-21T20:01:13.263Z,100823.86
2019-02-21T20:04:18.396Z,100822.33
2019-02-21T20:07:23.777Z,100832.33
2019-02-21T20:10:31.332Z,100838.22
2019-02-21T20:13:36.637Z,100842.23
2019-02-21T20:16:41.958Z,100844.41
2019-02-21T20:19:48.089Z,100841.09
2019-02-21T20:22:53.350Z,100850.98
2019-02-21T20:25:58.779Z,100860.89
2019-02-21T20:29:03.964Z,100860.89
2019-02-21T20:32:09.208Z,100864.92
2019-02-21T20:35:15.163Z,100872.98
2019-02-21T20:38:20.486Z,100871.31
2019-02-21T20:41:25.712Z,100873.83
2019-02-21T20:44:32.150Z,100876.50
2019-02-21T20:47:37.416Z,100890.92
2019-02-21T20:50:42.683Z,100890.91
2019-02-21T20:53:48.949Z,100890.08
2019-02-21T20:56:54.135Z,100892.10
2019-02-21T21:00:00.416Z,100894.95
2019-02-21T21:03:05.979Z,100884.87
2019-02-21T21:06:11.210Z,100892.23
2019-02-21T21:09:16.449Z,100889.67
2019-02-21T21:12:21.706Z,100885.63
2019-02-21T21:15:26.977Z,100882.59
2019-02-21T21:18:32.131Z,100880.56
2019-02-21T21:21:37.300Z,100883.89
2019-02-21T21:24:42.526Z,100877.31
2019-02-21T21:27:47.780Z,100889.54
2019-02-21T21:30:52.989Z,100891.53
2019-02-21T21:33:58.144Z,100893.52
2019-02-21T21:37:03.361Z,100897.78
2019-02-21T21:40:10.559Z,100901.33
2019-02-21T21:43:15.814Z,100900.09
2019-02-21T21:46:21.050Z,100892.42
2019-02-21T21:49:26.229Z,100898.00
2019-02-21T21:52:31.462Z,100902.70
2019-02-21T21:55:36.671Z,100910.00
2019-02-21T21:58:41.848Z,100909.14
2019-02-21T22:01:50.118Z,100915.11
2019-02-21T22:04:55.272Z,100918.55
2019-02-21T22:08:00.419Z,100917.81
2019-02-21T22:11:06.583Z,100910.15
2019-02-21T22:14:11.780Z,100911.81
2019-02-21T22:17:16.957Z,100909.51
2019-02-21T22:20:22.177Z,100906.39
2019-02-21T22:23:27.327Z,100909.41
2019-02-21T22:26:32.575Z,100912.48
2019-02-21T22:29:37.698Z,100919.09
2019-02-21T22:32:42.973Z,100930.73
2019-02-21T22:35:48.310Z,100929.07
2019-02-21T22:38:53.364Z,100922.75
2019-02-21T22:41:58.825Z,100930.59
2019-02-21T22:45:05.763Z,100921.88
2019-02-21T22:48:10.989Z,100918.63
2019-02-21T22:51:16.145Z,100915.45
2019-02-21T22:54:21.362Z,100910.59
2019-02-21T22:57:26.639Z,100914.44
2019-02-21T23:01:04.879Z,100915.63
2019-02-21T23:04:44.108Z,100907.95
2019-02-21T23:08:11.532Z,100908.57
2019-02-21T23:11:16.687Z,100910.55
2019-02-21T23:14:21.977Z,100906.58
2019-02-21T23:17:27.237Z,100915.51
2019-02-21T23:20:32.397Z,100919.97
2019-02-21T23:23:37.629Z,100921.63
2019-02-21T23:26:42.891Z,100920.48
2019-02-21T23:29:48.127Z,100923.93
2019-02-21T23:32:53.353Z,100921.75
2019-02-21T23:35:58.527Z,100924.11
2019-02-21T23:39:04.284Z,100920.59
2019-02-21T23:42:11.043Z,100922.66
2019-02-21T23:45:17.667Z,100910.64
2019-02-21T23:48:22.822Z,100917.12
2019-02-21T23:51:30.234Z,100919.14
2019-02-21T23:54:35.486Z,100917.81
2019-02-21T23:57:40.625Z,100916.58
